createdAt,value
2016-06-17T00:00:07.682Z,0
2016-06-17T00:01:08.092Z,0
2016-06-17T00:02:08.079Z,0
2016-06-17T00:03:07.911Z,0
2016-06-17T00:04:08.165Z,0
2016-06-17T00:05:08.106Z,0
2016-06-17T00:06:08.031Z,0
2016-06-17T00:07:07.846Z,0
2016-06-17T00:08:07.960Z,0
2016-06-17T00:09:08.291Z,0
2016-06-17T00:10:08.232Z,0
2016-06-17T00:11:08.251Z,0
2016-06-17T00:12:08.286Z,0
2016-06-17T00:13:08.227Z,0
2016-06-17T00:14:08.355Z,0
2016-06-17T00:15:08.374Z,0
2016-06-17T00:16:08.097Z,0
2016-06-17T00:17:08.256Z,0
2016-06-17T00:18:08.431Z,0
2016-06-17T00:19:08.310Z,0
2016-06-17T00:20:08.501Z,0
2016-06-17T00:21:08.380Z,0
2016-06-17T00:22:08.398Z,0
2016-06-17T00:23:08.590Z,0
2016-06-17T00:24:08.609Z,0
2016-06-17T00:25:08.488Z,0
2016-06-17T00:26:08.522Z,0
2016-06-17T00:27:08.213Z,0
2016-06-17T00:28:08.560Z,0
2016-06-17T00:29:08.735Z,0
2016-06-17T00:30:08.739Z,0
2016-06-17T00:31:08.633Z,0
2016-06-17T00:32:08.824Z,0
2016-06-17T00:33:08.780Z,0
2016-06-17T00:34:08.815Z,0
2016-06-17T00:35:08.850Z,0
2016-06-17T00:36:09.010Z,0
2016-06-17T00:37:08.872Z,0
2016-06-17T00:38:08.861Z,0
2016-06-17T00:39:08.879Z,0
2016-06-17T00:40:08.882Z,0
2016-06-17T00:41:09.043Z,0
2016-06-17T00:42:09.172Z,0
2016-06-17T00:43:09.018Z,0
2016-06-17T00:44:09.131Z,0
2016-06-17T00:45:09.149Z,0
2016-06-17T00:46:08.966Z,0
2016-06-17T00:47:09.126Z,0
2016-06-17T00:48:09.129Z,0
2016-06-17T00:49:09.273Z,0
2016-06-17T00:50:09.276Z,0
2016-06-17T00:51:09.013Z,0
2016-06-17T00:52:09.329Z,0
2016-06-17T00:53:09.347Z,0
2016-06-17T00:54:08.913Z,0
2016-06-17T00:55:09.416Z,0
2016-06-17T00:56:09.434Z,0
2016-06-17T00:57:09.470Z,0
2016-06-17T00:58:09.348Z,0
2016-06-17T00:59:09.211Z,0
2016-06-17T01:00:12.542Z,0
2016-06-17T01:01:09.561Z,0
2016-06-17T01:02:09.455Z,0
2016-06-17T01:03:09.615Z,0
2016-06-17T01:04:09.508Z,0
2016-06-17T01:05:09.512Z,0
2016-06-17T01:06:09.797Z,0
2016-06-17T01:07:09.816Z,0
2016-06-17T01:08:09.820Z,0
2016-06-17T01:09:09.823Z,0
2016-06-17T01:10:09.670Z,0
2016-06-17T01:11:09.674Z,0
2016-06-17T01:12:09.833Z,0
2016-06-17T01:13:09.977Z,0
2016-06-17T01:14:09.996Z,0
2016-06-17T01:15:10.032Z,0
2016-06-17T01:16:09.878Z,0
2016-06-17T01:17:10.038Z,0
2016-06-17T01:18:10.042Z,0
2016-06-17T01:19:09.951Z,0
2016-06-17T01:20:09.658Z,0
2016-06-17T01:21:10.099Z,0
2016-06-17T01:22:10.117Z,0
2016-06-17T01:23:10.122Z,0
2016-06-17T01:24:10.155Z,0
2016-06-17T01:25:10.237Z,0
2016-06-17T01:26:10.070Z,0
2016-06-17T01:27:10.073Z,0
2016-06-17T01:28:10.091Z,0
2016-06-17T01:29:10.189Z,0
2016-06-17T01:30:10.004Z,0
2016-06-17T01:31:10.337Z,0
2016-06-17T01:32:10.356Z,0
2016-06-17T01:33:10.374Z,0
2016-06-17T01:34:10.378Z,0
2016-06-17T01:35:10.522Z,0
2016-06-17T01:36:10.151Z,0
2016-06-17T01:37:10.404Z,0
2016-06-17T01:38:10.268Z,0
2016-06-17T01:39:10.723Z,0
2016-06-17T01:40:10.727Z,0
2016-06-17T01:41:10.747Z,0
2016-06-17T01:42:10.609Z,0
2016-06-17T01:43:10.394Z,0
2016-06-17T01:44:10.772Z,0
2016-06-17T01:45:10.603Z,0
2016-06-17T01:46:10.920Z,0
2016-06-17T01:47:10.689Z,0
2016-06-17T01:48:10.832Z,0
2016-06-17T01:49:10.852Z,0
2016-06-17T01:50:10.762Z,0
2016-06-17T01:51:10.921Z,0
2016-06-17T01:52:10.956Z,0
2016-06-17T01:53:11.006Z,0
2016-06-17T01:54:10.931Z,0
2016-06-17T01:55:11.060Z,0
2016-06-17T01:56:10.972Z,0
2016-06-17T01:57:11.087Z,0
2016-06-17T01:58:11.091Z,0
2016-06-17T01:59:11.143Z,0
2016-06-17T02:00:11.132Z,0
2016-06-17T02:01:11.152Z,0
2016-06-17T02:02:11.171Z,0
2016-06-17T02:03:11.191Z,0
2016-06-17T02:04:11.038Z,0
2016-06-17T02:05:11.214Z,0
2016-06-17T02:06:11.093Z,0
2016-06-17T02:07:11.268Z,0
2016-06-17T02:08:11.288Z,0
2016-06-17T02:09:11.322Z,0
2016-06-17T02:10:11.358Z,0
2016-06-17T02:11:11.455Z,0
2016-06-17T02:12:11.241Z,0
2016-06-17T02:13:11.118Z,0
2016-06-17T02:14:11.293Z,0
2016-06-17T02:15:11.156Z,0
2016-06-17T02:16:11.488Z,0
2016-06-17T02:17:11.351Z,0
2016-06-17T02:18:11.542Z,0
2016-06-17T02:19:11.592Z,0
2016-06-17T02:20:11.533Z,0
2016-06-17T02:21:11.662Z,0
2016-06-17T02:22:11.664Z,0
2016-06-17T02:23:11.699Z,0
2016-06-17T02:24:11.563Z,0
2016-06-17T02:25:11.738Z,0
2016-06-17T02:26:11.835Z,0
2016-06-17T02:27:11.605Z,0
2016-06-17T02:28:11.888Z,0
2016-06-17T02:29:11.924Z,0
2016-06-17T02:30:11.834Z,0
2016-06-17T02:31:11.884Z,0
2016-06-17T02:32:11.888Z,0
2016-06-17T02:33:11.905Z,0
2016-06-17T02:34:11.628Z,0
2016-06-17T02:35:11.960Z,0
2016-06-17T02:36:12.011Z,0
2016-06-17T02:37:12.013Z,0
2016-06-17T02:38:12.033Z,0
2016-06-17T02:39:11.912Z,0
2016-06-17T02:40:12.087Z,0
2016-06-17T02:41:11.981Z,0
2016-06-17T02:42:12.125Z,0
2016-06-17T02:43:12.003Z,0
2016-06-17T02:44:12.038Z,0
2016-06-17T02:45:12.214Z,0
2016-06-17T02:46:12.326Z,0
2016-06-17T02:47:11.954Z,0
2016-06-17T02:48:12.286Z,0
2016-06-17T02:49:12.305Z,0
2016-06-17T02:50:12.184Z,0
2016-06-17T02:51:12.343Z,0
2016-06-17T02:52:12.393Z,0
2016-06-17T02:53:12.428Z,0
2016-06-17T02:54:12.276Z,0
2016-06-17T02:55:12.326Z,0
2016-06-17T02:56:12.517Z,0
2016-06-17T02:57:12.380Z,0
2016-06-17T02:58:12.539Z,0
2016-06-17T02:59:12.418Z,0
2016-06-17T03:00:12.265Z,0
2016-06-17T03:01:12.472Z,0
2016-06-17T03:02:12.475Z,0
2016-06-17T03:03:12.510Z,0
2016-06-17T03:04:12.670Z,0
2016-06-17T03:05:12.705Z,0
2016-06-17T03:06:12.739Z,0
2016-06-17T03:07:12.601Z,0
2016-06-17T03:08:12.652Z,0
2016-06-17T03:09:12.655Z,0
2016-06-17T03:10:12.691Z,0
2016-06-17T03:11:12.850Z,0
2016-06-17T03:12:12.869Z,0
2016-06-17T03:13:12.747Z,0
2016-06-17T03:14:12.923Z,0
2016-06-17T03:15:12.801Z,0
2016-06-17T03:16:12.821Z,0
2016-06-17T03:17:12.996Z,0
2016-06-17T03:18:13.014Z,0
2016-06-17T03:19:12.893Z,0
2016-06-17T03:20:13.068Z,0
2016-06-17T03:21:13.088Z,0
2016-06-17T03:22:13.139Z,0
2016-06-17T03:23:13.142Z,0
2016-06-17T03:24:13.176Z,0
2016-06-17T03:25:13.243Z,0
2016-06-17T03:26:13.214Z,0
2016-06-17T03:27:13.234Z,0
2016-06-17T03:28:13.112Z,0
2016-06-17T03:29:12.975Z,0
2016-06-17T03:30:13.322Z,0
2016-06-17T03:31:13.356Z,0
2016-06-17T03:32:12.892Z,0
2016-06-17T03:33:13.410Z,0
2016-06-17T03:34:13.241Z,0
2016-06-17T03:35:13.434Z,0
2016-06-17T03:36:13.326Z,0
2016-06-17T03:37:13.330Z,0
2016-06-17T03:38:13.506Z,0
2016-06-17T03:39:13.542Z,0
2016-06-17T03:40:13.544Z,0
2016-06-17T03:41:13.266Z,0
2016-06-17T03:42:13.597Z,0
2016-06-17T03:43:13.476Z,0
2016-06-17T03:44:13.668Z,0
2016-06-17T03:45:13.515Z,0
2016-06-17T03:46:13.550Z,0
2016-06-17T03:47:13.725Z,0
2016-06-17T03:48:13.588Z,0
2016-06-17T03:49:13.621Z,0
2016-06-17T03:50:13.797Z,0
2016-06-17T03:51:13.848Z,0
2016-06-17T03:52:13.804Z,0
2016-06-17T03:53:13.871Z,0
2016-06-17T03:54:13.889Z,0
2016-06-17T03:55:13.908Z,0
2016-06-17T03:56:13.943Z,0
2016-06-17T03:57:13.963Z,0
2016-06-17T03:58:14.013Z,0
2016-06-17T03:59:14.016Z,0
2016-06-17T04:00:14.082Z,0
2016-06-17T04:01:14.070Z,0
2016-06-17T04:02:13.824Z,0
2016-06-17T04:03:13.952Z,0
2016-06-17T04:04:14.173Z,0
2016-06-17T04:05:14.006Z,0
2016-06-17T04:06:14.197Z,0
2016-06-17T04:07:13.903Z,0
2016-06-17T04:08:13.922Z,0
2016-06-17T04:09:14.254Z,0
2016-06-17T04:10:14.273Z,0
2016-06-17T04:11:14.292Z,0
2016-06-17T04:12:14.173Z,0
2016-06-17T04:13:14.383Z,0
2016-06-17T04:14:14.265Z,0
2016-06-17T04:15:14.429Z,0
2016-06-17T04:16:14.435Z,0
2016-06-17T04:17:14.316Z,0
2016-06-17T04:18:14.179Z,0
2016-06-17T04:19:14.371Z,0
2016-06-17T04:20:14.391Z,0
2016-06-17T04:21:14.412Z,0
2016-06-17T04:22:14.448Z,0
2016-06-17T04:23:14.467Z,0
2016-06-17T04:24:14.486Z,0
2016-06-17T04:25:14.662Z,0
2016-06-17T04:26:14.524Z,0
2016-06-17T04:27:14.560Z,0
2016-06-17T04:28:14.423Z,0
2016-06-17T04:29:14.599Z,0
2016-06-17T04:30:14.790Z,0
2016-06-17T04:31:14.793Z,0
2016-06-17T04:32:14.845Z,0
2016-06-17T04:33:14.847Z,0
2016-06-17T04:34:14.883Z,5
2016-06-17T04:35:14.762Z,5
2016-06-17T04:36:14.922Z,5
2016-06-17T04:37:14.955Z,5
2016-06-17T04:38:14.818Z,5
2016-06-17T04:39:15.009Z,5
2016-06-17T04:40:15.044Z,5
2016-06-17T04:41:15.064Z,5
2016-06-17T04:42:15.019Z,5
2016-06-17T04:43:15.085Z,5
2016-06-17T04:44:15.104Z,5
2016-06-17T04:45:14.922Z,0
2016-06-17T04:46:14.987Z,0
2016-06-17T04:47:15.397Z,0
2016-06-17T04:48:15.196Z,0
2016-06-17T04:49:15.091Z,5
2016-06-17T04:50:15.266Z,5
2016-06-17T04:51:15.301Z,5
2016-06-17T04:52:15.305Z,5
2016-06-17T04:53:15.402Z,5
2016-06-17T04:54:15.202Z,5
2016-06-17T04:55:15.377Z,5
2016-06-17T04:56:15.397Z,5
2016-06-17T04:57:15.416Z,5
2016-06-17T04:58:15.295Z,5
2016-06-17T04:59:15.312Z,5
2016-06-17T05:00:15.504Z,5
2016-06-17T05:01:15.523Z,0
2016-06-17T05:02:15.339Z,0
2016-06-17T05:03:15.562Z,0
2016-06-17T05:04:15.596Z,5
2016-06-17T05:05:15.615Z,5
2016-06-17T05:06:15.634Z,5
2016-06-17T05:07:15.513Z,5
2016-06-17T05:08:15.688Z,5
2016-06-17T05:09:15.692Z,5
2016-06-17T05:10:15.569Z,5
2016-06-17T05:11:15.589Z,5
2016-06-17T05:12:15.733Z,5
2016-06-17T05:13:15.893Z,0
2016-06-17T05:14:15.787Z,0
2016-06-17T05:15:15.775Z,0
2016-06-17T05:16:15.731Z,5
2016-06-17T05:17:15.750Z,5
2016-06-17T05:18:15.628Z,5
2016-06-17T05:19:15.820Z,5
2016-06-17T05:20:15.933Z,5
2016-06-17T05:21:16.013Z,5
2016-06-17T05:22:16.127Z,5
2016-06-17T05:23:16.130Z,5
2016-06-17T05:24:16.165Z,5
2016-06-17T05:25:16.169Z,5
2016-06-17T05:26:17.500Z,5
2016-06-17T05:27:16.160Z,5
2016-06-17T05:28:16.085Z,5
2016-06-17T05:29:16.339Z,5
2016-06-17T05:30:16.123Z,5
2016-06-17T05:31:16.471Z,5
2016-06-17T05:32:16.271Z,5
2016-06-17T05:33:16.149Z,5
2016-06-17T05:34:16.309Z,5
2016-06-17T05:35:16.125Z,5
2016-06-17T05:36:16.191Z,5
2016-06-17T05:37:16.210Z,5
2016-06-17T05:38:16.386Z,5
2016-06-17T05:39:16.264Z,5
2016-06-17T05:40:16.439Z,5
2016-06-17T05:41:16.161Z,5
2016-06-17T05:42:16.336Z,5
2016-06-17T05:43:16.497Z,5
2016-06-17T05:44:16.625Z,5
2016-06-17T05:45:16.629Z,5
2016-06-17T05:46:16.663Z,5
2016-06-17T05:47:16.526Z,5
2016-06-17T05:48:16.701Z,5
2016-06-17T05:49:16.877Z,5
2016-06-17T05:50:16.724Z,5
2016-06-17T05:51:16.789Z,5
2016-06-17T05:52:16.621Z,5
2016-06-17T05:53:16.937Z,5
2016-06-17T05:54:16.816Z,5
2016-06-17T05:55:16.959Z,5
2016-06-17T05:56:16.682Z,5
2016-06-17T05:57:16.982Z,5
2016-06-17T05:58:16.969Z,5
2016-06-17T05:59:16.849Z,5
2016-06-17T06:00:16.695Z,5
2016-06-17T06:01:17.074Z,5
2016-06-17T06:02:17.078Z,5
2016-06-17T06:03:16.753Z,5
2016-06-17T06:04:16.944Z,5
2016-06-17T06:05:17.103Z,5
2016-06-17T06:06:16.966Z,5
2016-06-17T06:07:16.455Z,5
2016-06-17T06:08:17.115Z,5
2016-06-17T06:09:17.132Z,5
2016-06-17T06:10:17.105Z,5
2016-06-17T06:11:17.171Z,5
2016-06-17T06:12:17.112Z,5
2016-06-17T06:13:17.147Z,5
2016-06-17T06:14:17.166Z,5
2016-06-17T06:15:17.169Z,5
2016-06-17T06:16:17.298Z,5
2016-06-17T06:17:17.176Z,5
2016-06-17T06:18:17.196Z,5
2016-06-17T06:19:17.215Z,5
2016-06-17T06:20:17.233Z,5
2016-06-17T06:21:17.269Z,5
2016-06-17T06:22:17.287Z,5
2016-06-17T06:23:17.306Z,5
2016-06-17T06:24:17.342Z,5
2016-06-17T06:25:17.267Z,5
2016-06-17T06:26:17.396Z,5
2016-06-17T06:27:17.570Z,5
2016-06-17T06:28:17.574Z,5
2016-06-17T06:29:17.457Z,5
2016-06-17T06:30:17.654Z,5
2016-06-17T06:31:17.521Z,5
2016-06-17T06:32:17.687Z,5
2016-06-17T06:33:17.570Z,10
2016-06-17T06:34:17.590Z,10
2016-06-17T06:35:17.626Z,10
2016-06-17T06:36:17.647Z,10
2016-06-17T06:37:17.823Z,10
2016-06-17T06:38:17.876Z,5
2016-06-17T06:39:17.755Z,10
2016-06-17T06:40:17.916Z,10
2016-06-17T06:41:17.778Z,10
2016-06-17T06:42:17.643Z,10
2016-06-17T06:43:17.819Z,10
2016-06-17T06:44:17.994Z,10
2016-06-17T06:45:17.873Z,10
2016-06-17T06:46:18.063Z,10
2016-06-17T06:47:17.942Z,10
2016-06-17T06:48:17.945Z,5
2016-06-17T06:49:17.979Z,10
2016-06-17T06:50:18.155Z,10
2016-06-17T06:51:18.158Z,10
2016-06-17T06:52:18.037Z,10
2016-06-17T06:53:18.229Z,10
2016-06-17T06:54:18.247Z,10
2016-06-17T06:55:18.267Z,10
2016-06-17T06:56:17.972Z,10
2016-06-17T06:57:18.320Z,10
2016-06-17T06:58:18.199Z,10
2016-06-17T06:59:18.374Z,5
2016-06-17T07:00:18.393Z,10
2016-06-17T07:01:18.271Z,10
2016-06-17T07:02:18.446Z,10
2016-06-17T07:03:18.309Z,5
2016-06-17T07:04:18.484Z,5
2016-06-17T07:05:18.363Z,10
2016-06-17T07:06:18.383Z,10
2016-06-17T07:07:18.401Z,5
2016-06-17T07:08:18.608Z,10
2016-06-17T07:09:18.455Z,5
2016-06-17T07:10:18.662Z,10
2016-06-17T07:11:18.509Z,10
2016-06-17T07:12:18.669Z,10
2016-06-17T07:13:18.704Z,10
2016-06-17T07:14:18.410Z,10
2016-06-17T07:15:18.288Z,10
2016-06-17T07:16:18.620Z,10
2016-06-17T07:17:18.796Z,10
2016-06-17T07:18:18.657Z,10
2016-06-17T07:19:18.537Z,15
2016-06-17T07:20:18.977Z,10
2016-06-17T07:21:18.981Z,10
2016-06-17T07:22:18.766Z,10
2016-06-17T07:23:19.020Z,10
2016-06-17T07:24:19.023Z,15
2016-06-17T07:25:19.104Z,10
2016-06-17T07:26:18.717Z,10
2016-06-17T07:27:19.111Z,10
2016-06-17T07:28:19.115Z,10
2016-06-17T07:29:19.102Z,10
2016-06-17T07:30:19.138Z,15
2016-06-17T07:31:19.687Z,10
2016-06-17T07:32:19.175Z,15
2016-06-17T07:33:19.257Z,15
2016-06-17T07:34:19.136Z,15
2016-06-17T07:35:19.280Z,15
2016-06-17T07:36:19.174Z,10
2016-06-17T07:37:19.333Z,15
2016-06-17T07:38:19.181Z,15
2016-06-17T07:39:19.324Z,10
2016-06-17T07:40:19.094Z,10
2016-06-17T07:41:19.098Z,15
2016-06-17T07:42:19.131Z,10
2016-06-17T07:43:19.260Z,10
2016-06-17T07:44:19.139Z,15
2016-06-17T07:45:19.330Z,10
2016-06-17T07:46:19.490Z,10
2016-06-17T07:47:19.508Z,10
2016-06-17T07:48:19.497Z,10
2016-06-17T07:49:19.500Z,10
2016-06-17T07:50:19.643Z,15
2016-06-17T07:51:19.835Z,10
2016-06-17T07:52:19.823Z,15
2016-06-17T07:53:19.826Z,20
2016-06-17T07:54:19.532Z,20
2016-06-17T07:55:19.490Z,15
2016-06-17T07:56:19.852Z,15
2016-06-17T07:57:18.950Z,20
2016-06-17T07:58:19.875Z,15
2016-06-17T07:59:19.879Z,15
2016-06-17T08:01:55.230Z,15
2016-06-17T08:05:00.256Z,10
2016-06-17T08:05:54.713Z,15
2016-06-17T08:06:54.747Z,15
2016-06-17T08:07:54.156Z,15
2016-06-17T08:08:54.160Z,10
2016-06-17T08:09:54.757Z,10
2016-06-17T08:10:54.683Z,15
2016-06-17T08:11:54.827Z,15
2016-06-17T08:12:54.236Z,15
2016-06-17T08:13:54.255Z,10
2016-06-17T08:14:54.274Z,15
2016-06-17T08:15:54.293Z,10
2016-06-17T08:16:54.312Z,10
2016-06-17T08:17:54.379Z,10
2016-06-17T08:18:55.008Z,10
2016-06-17T08:19:54.401Z,10
2016-06-17T08:20:54.420Z,10
2016-06-17T08:21:55.064Z,15
2016-06-17T08:22:55.114Z,15
2016-06-17T08:23:55.681Z,10
2016-06-17T08:24:56.371Z,10
2016-06-17T08:25:55.141Z,10
2016-06-17T08:26:54.566Z,5
2016-06-17T08:27:55.726Z,5
2016-06-17T08:28:56.213Z,5
2016-06-17T08:29:54.624Z,5
2016-06-17T08:30:55.267Z,10
2016-06-17T08:31:55.287Z,10
2016-06-17T08:32:55.432Z,10
2016-06-17T08:33:54.716Z,10
2016-06-17T08:34:54.751Z,10
2016-06-17T08:35:54.784Z,15
2016-06-17T08:36:55.445Z,15
2016-06-17T08:37:55.449Z,15
2016-06-17T08:38:56.311Z,15
2016-06-17T08:39:55.534Z,15
2016-06-17T08:40:55.068Z,15
2016-06-17T08:41:55.587Z,15
2016-06-17T08:42:55.575Z,15
2016-06-17T08:43:54.969Z,10
2016-06-17T08:44:20.812Z,20
2016-06-17T08:44:30.469Z,20
2016-06-17T08:45:29.754Z,20
2016-06-17T08:46:31.022Z,15
2016-06-17T08:47:29.902Z,5
2016-06-17T08:48:30.468Z,10
2016-06-17T08:49:30.488Z,10
2016-06-17T08:50:30.522Z,15
2016-06-17T08:51:32.338Z,15
2016-06-17T08:52:29.936Z,5
2016-06-17T08:53:30.081Z,15
2016-06-17T08:54:29.989Z,20
2016-06-17T08:55:30.009Z,35
2016-06-17T08:56:30.044Z,25
2016-06-17T08:57:30.062Z,30
2016-06-17T08:58:30.099Z,25
2016-06-17T08:59:30.194Z,30
2016-06-17T09:00:30.933Z,30
2016-06-17T09:01:30.248Z,30
2016-06-17T09:02:30.877Z,25
2016-06-17T09:03:30.413Z,35
2016-06-17T09:04:30.228Z,35
2016-06-17T09:05:30.248Z,20
2016-06-17T09:06:30.266Z,30
2016-06-17T09:07:31.535Z,25
2016-06-17T09:08:31.648Z,35
2016-06-17T09:16:30.626Z,40
2016-06-17T09:17:30.599Z,40
2016-06-17T09:24:27.800Z,40
2016-06-17T09:25:28.428Z,35
2016-06-17T09:26:29.073Z,40
2016-06-17T09:27:27.843Z,40
2016-06-17T09:28:28.924Z,40
2016-06-17T09:29:28.475Z,40
2016-06-17T09:30:27.759Z,40
2016-06-17T09:31:27.996Z,45
2016-06-17T09:32:27.797Z,45
2016-06-17T09:33:28.457Z,45
2016-06-17T09:34:28.492Z,50
2016-06-17T09:35:28.511Z,50
2016-06-17T09:36:28.530Z,55
2016-06-17T09:37:29.205Z,50
2016-06-17T09:38:27.959Z,55
2016-06-17T09:39:27.978Z,55
2016-06-17T09:40:28.622Z,55
2016-06-17T09:41:28.033Z,55
2016-06-17T09:42:29.365Z,55
2016-06-17T09:43:28.714Z,55
2016-06-17T09:44:28.719Z,50
2016-06-17T09:45:28.130Z,50
2016-06-17T09:46:28.822Z,35
2016-06-17T09:47:28.920Z,40
2016-06-17T09:48:28.298Z,50
2016-06-17T09:49:29.459Z,50
2016-06-17T09:50:29.103Z,40
2016-06-17T09:51:28.497Z,45
2016-06-17T09:52:29.563Z,35
2016-06-17T09:53:28.520Z,30
2016-06-17T09:54:28.507Z,35
2016-06-17T09:55:28.511Z,20
2016-06-17T09:56:28.514Z,25
2016-06-17T09:57:28.517Z,35
2016-06-17T09:58:29.071Z,40
2016-06-17T09:59:29.311Z,35
2016-06-17T10:00:29.223Z,25
2016-06-17T10:01:28.605Z,40
2016-06-17T10:02:28.625Z,50
2016-06-17T10:03:28.693Z,55
2016-06-17T10:04:28.698Z,45
2016-06-17T10:05:29.358Z,35
2016-06-17T10:06:28.737Z,55
2016-06-17T10:07:29.413Z,55
2016-06-17T10:08:28.760Z,40
2016-06-17T10:09:29.374Z,50
2016-06-17T10:10:28.769Z,50
2016-06-17T10:11:29.429Z,55
2016-06-17T10:12:29.494Z,50
2016-06-17T10:13:28.842Z,45
2016-06-17T10:14:28.923Z,50
2016-06-17T10:15:28.913Z,40
2016-06-17T10:16:29.557Z,50
2016-06-17T10:17:29.577Z,50
2016-06-17T10:18:29.597Z,45
2016-06-17T10:19:29.632Z,45
2016-06-17T10:20:29.651Z,25
2016-06-17T10:21:29.062Z,15
2016-06-17T10:22:29.081Z,30
2016-06-17T10:23:29.742Z,30
2016-06-17T10:24:29.777Z,40
2016-06-17T10:25:29.217Z,40
2016-06-17T10:26:29.830Z,40
2016-06-17T10:27:29.209Z,45
2016-06-17T10:28:29.228Z,45
2016-06-17T10:29:29.247Z,45
2016-06-17T10:30:29.297Z,45
2016-06-17T10:31:29.941Z,45
2016-06-17T10:32:29.960Z,45
2016-06-17T10:33:29.979Z,45
2016-06-17T10:34:29.389Z,45
2016-06-17T10:35:30.049Z,45
2016-06-17T10:36:29.443Z,50
2016-06-17T10:37:30.759Z,45
2016-06-17T10:38:30.106Z,45
2016-06-17T10:39:29.516Z,40
2016-06-17T10:40:29.535Z,40
2016-06-17T10:41:30.179Z,50
2016-06-17T10:42:29.604Z,50
2016-06-17T10:43:29.624Z,50
2016-06-17T10:44:29.643Z,50
2016-06-17T10:45:30.333Z,50
2016-06-17T10:46:30.322Z,55
2016-06-17T10:47:29.731Z,55
2016-06-17T10:48:29.765Z,55
2016-06-17T10:49:29.770Z,60
2016-06-17T10:50:30.415Z,60
2016-06-17T10:51:29.841Z,65
2016-06-17T10:52:29.829Z,55
2016-06-17T10:53:29.895Z,65
2016-06-17T10:54:29.900Z,65
2016-06-17T10:55:29.966Z,70
2016-06-17T10:56:29.953Z,65
2016-06-17T10:57:30.613Z,65
2016-06-17T10:58:29.991Z,55
2016-06-17T10:59:30.026Z,45
2016-06-17T11:00:30.077Z,15
2016-06-17T11:01:30.080Z,25
2016-06-17T11:02:30.802Z,50
2016-06-17T11:03:30.165Z,30
2016-06-17T11:04:32.183Z,25
2016-06-17T11:05:30.813Z,50
2016-06-17T11:06:30.847Z,60
2016-06-17T11:07:30.223Z,60
2016-06-17T11:08:30.257Z,60
2016-06-17T11:09:30.915Z,70
2016-06-17T11:10:30.324Z,60
2016-06-17T11:11:30.327Z,75
2016-06-17T11:12:31.080Z,75
2016-06-17T11:13:30.458Z,55
2016-06-17T11:14:30.477Z,70
2016-06-17T11:15:31.339Z,45
2016-06-17T11:16:31.280Z,60
2016-06-17T11:17:32.050Z,60
2016-06-17T11:18:31.303Z,60
2016-06-17T11:19:30.697Z,60
2016-06-17T11:20:30.732Z,60
2016-06-17T11:21:31.344Z,55
2016-06-17T11:22:30.738Z,50
2016-06-17T11:23:30.852Z,45
2016-06-17T11:24:30.777Z,45
2016-06-17T11:25:31.468Z,50
2016-06-17T11:26:30.815Z,55
2016-06-17T11:27:30.834Z,55
2016-06-17T11:28:31.463Z,55
2016-06-17T11:29:30.887Z,55
2016-06-17T11:30:30.891Z,60
2016-06-17T11:31:30.957Z,60
2016-06-17T11:32:31.522Z,60
2016-06-17T11:33:30.918Z,60
2016-06-17T11:34:30.937Z,65
2016-06-17T11:35:30.971Z,55
2016-06-17T11:36:30.975Z,45
2016-06-17T11:37:31.009Z,45
2016-06-17T11:38:31.044Z,60
2016-06-17T11:39:31.064Z,60
2016-06-17T11:40:31.722Z,60
2016-06-17T11:41:31.742Z,45
2016-06-17T11:42:31.150Z,40
2016-06-17T11:43:31.903Z,25
2016-06-17T11:44:31.923Z,25
2016-06-17T11:45:31.926Z,15
2016-06-17T11:46:31.257Z,20
2016-06-17T11:47:31.931Z,35
2016-06-17T11:48:31.950Z,65
2016-06-17T11:49:31.953Z,70
2016-06-17T11:50:32.097Z,65
2016-06-17T11:51:32.101Z,50
2016-06-17T11:52:32.135Z,25
2016-06-17T11:53:31.451Z,25
2016-06-17T11:54:32.158Z,25
2016-06-17T11:55:32.162Z,35
2016-06-17T11:56:32.196Z,40
2016-06-17T11:57:32.169Z,45
2016-06-17T11:58:31.563Z,50
2016-06-17T11:59:32.862Z,75
2016-06-17T12:00:31.632Z,55
2016-06-17T12:01:32.291Z,40
2016-06-17T12:02:31.686Z,55
2016-06-17T12:03:31.706Z,35
2016-06-17T12:04:32.365Z,25
2016-06-17T12:05:32.993Z,45
2016-06-17T12:06:32.419Z,30
2016-06-17T12:07:32.453Z,10
2016-06-17T12:08:33.691Z,10
2016-06-17T12:09:31.897Z,10
2016-06-17T12:10:31.917Z,10
2016-06-17T12:11:32.045Z,15
2016-06-17T12:12:32.032Z,20
2016-06-17T12:13:32.083Z,20
2016-06-17T12:14:32.103Z,20
2016-06-17T12:15:32.110Z,25
2016-06-17T12:16:32.741Z,35
2016-06-17T12:17:32.138Z,60
2016-06-17T12:18:32.145Z,60
2016-06-17T12:19:32.149Z,35
2016-06-17T12:20:32.795Z,30
2016-06-17T12:21:32.830Z,20
2016-06-17T12:22:32.242Z,35
2016-06-17T12:23:32.261Z,80
2016-06-17T12:24:32.312Z,110
2016-06-17T12:25:32.316Z,120
2016-06-17T12:26:32.976Z,95
2016-06-17T12:27:32.387Z,85
2016-06-17T12:28:33.656Z,80
2016-06-17T12:29:32.442Z,60
2016-06-17T12:30:32.460Z,35
2016-06-17T12:31:34.417Z,50
2016-06-17T12:32:32.513Z,75
2016-06-17T12:33:33.798Z,110
2016-06-17T12:34:33.177Z,115
2016-06-17T12:35:33.227Z,95
2016-06-17T12:36:32.653Z,90
2016-06-17T12:37:32.656Z,85
2016-06-17T12:38:32.690Z,80
2016-06-17T12:39:32.726Z,90
2016-06-17T12:40:33.386Z,95
2016-06-17T12:41:32.764Z,90
2016-06-17T12:42:32.798Z,110
2016-06-17T12:43:32.818Z,100
2016-06-17T12:44:32.868Z,100
2016-06-17T12:45:32.903Z,90
2016-06-17T12:46:32.921Z,80
2016-06-17T12:47:32.924Z,90
2016-06-17T12:48:32.960Z,80
2016-06-17T12:49:32.995Z,105
2016-06-17T12:50:33.623Z,100
2016-06-17T12:51:33.033Z,95
2016-06-17T12:52:33.067Z,100
2016-06-17T12:53:33.118Z,100
2016-06-17T12:54:33.184Z,105
2016-06-17T12:55:33.156Z,110
2016-06-17T12:56:33.831Z,120
2016-06-17T12:57:33.819Z,125
2016-06-17T12:58:33.854Z,115
2016-06-17T12:59:33.982Z,85
2016-06-17T13:00:34.141Z,45
2016-06-17T13:01:34.583Z,55
2016-06-17T13:02:33.352Z,60
2016-06-17T13:03:33.371Z,30
2016-06-17T13:04:34.031Z,100
2016-06-17T13:05:33.441Z,110
2016-06-17T13:06:34.194Z,60
2016-06-17T13:07:33.493Z,45
2016-06-17T13:08:34.357Z,75
2016-06-17T13:09:34.970Z,65
2016-06-17T13:10:33.583Z,40
2016-06-17T13:11:33.602Z,55
2016-06-17T13:12:34.371Z,90
2016-06-17T13:13:33.672Z,90
2016-06-17T13:14:34.378Z,95
2016-06-17T13:15:33.740Z,90
2016-06-17T13:16:34.385Z,90
2016-06-17T13:17:33.810Z,85
2016-06-17T13:18:33.814Z,80
2016-06-17T13:19:34.473Z,90
2016-06-17T13:20:34.493Z,60
2016-06-17T13:21:33.981Z,40
2016-06-17T13:22:34.015Z,20
2016-06-17T13:23:34.190Z,95
2016-06-17T13:24:34.069Z,50
2016-06-17T13:25:34.135Z,95
2016-06-17T13:26:34.139Z,90
2016-06-17T13:27:35.313Z,55
2016-06-17T13:28:34.911Z,35
2016-06-17T13:29:34.757Z,60
2016-06-17T13:30:34.309Z,45
2016-06-17T13:31:34.811Z,70
2016-06-17T13:32:34.330Z,70
2016-06-17T13:33:34.334Z,65
2016-06-17T13:34:34.916Z,115
2016-06-17T13:35:34.404Z,75
2016-06-17T13:36:35.016Z,75
2016-06-17T13:37:34.989Z,80
2016-06-17T13:38:34.398Z,65
2016-06-17T13:39:35.058Z,55
2016-06-17T13:40:35.702Z,45
2016-06-17T13:41:34.487Z,40
2016-06-17T13:42:35.146Z,25
2016-06-17T13:43:35.166Z,25
2016-06-17T13:44:34.575Z,15
2016-06-17T13:45:34.611Z,15
2016-06-17T13:46:35.253Z,10
2016-06-17T13:47:35.289Z,5
2016-06-17T13:48:35.324Z,5
2016-06-17T13:49:35.374Z,0
2016-06-17T13:50:34.753Z,0
2016-06-17T13:51:34.803Z,0
2016-06-17T13:52:35.462Z,0
2016-06-17T13:53:34.841Z,5
2016-06-17T13:54:34.891Z,10
2016-06-17T13:55:35.582Z,10
2016-06-17T13:56:34.930Z,5
2016-06-17T13:57:35.608Z,5
2016-06-17T13:58:35.004Z,10
2016-06-17T13:59:35.025Z,20
2016-06-17T14:00:35.062Z,25
2016-06-17T14:01:35.725Z,25
2016-06-17T14:02:35.150Z,30
2016-06-17T14:03:35.154Z,30
2016-06-17T14:04:35.205Z,30
2016-06-17T14:05:35.241Z,30
2016-06-17T14:06:35.260Z,30
2016-06-17T14:07:43.514Z,35
2016-06-17T14:08:36.550Z,55
2016-06-17T14:09:35.960Z,70
2016-06-17T14:10:35.370Z,110
2016-06-17T14:11:36.140Z,120
2016-06-17T14:12:35.440Z,130
2016-06-17T14:13:35.459Z,125
2016-06-17T14:14:35.493Z,110
2016-06-17T14:15:35.543Z,95
2016-06-17T14:16:36.171Z,40
2016-06-17T14:17:35.582Z,60
2016-06-17T14:18:35.617Z,40
2016-06-17T14:19:35.635Z,75
2016-06-17T14:20:35.670Z,70
2016-06-17T14:21:36.331Z,25
2016-06-17T14:22:35.739Z,80
2016-06-17T14:23:35.759Z,80
2016-06-17T14:24:36.403Z,65
2016-06-17T14:25:35.810Z,50
2016-06-17T14:26:35.844Z,50
2016-06-17T14:27:35.863Z,40
2016-06-17T14:28:35.913Z,25
2016-06-17T14:29:35.948Z,25
2016-06-17T14:30:36.576Z,35
2016-06-17T14:31:36.128Z,40
2016-06-17T14:32:36.132Z,50
2016-06-17T14:33:36.745Z,30
2016-06-17T14:34:36.327Z,25
2016-06-17T14:35:36.738Z,15
2016-06-17T14:36:36.336Z,15
2016-06-17T14:37:36.355Z,10
2016-06-17T14:38:36.374Z,5
2016-06-17T14:39:36.863Z,5
2016-06-17T14:40:36.882Z,5
2016-06-17T14:41:36.386Z,5
2016-06-17T14:42:36.437Z,15
2016-06-17T14:43:36.440Z,30
2016-06-17T14:44:37.006Z,40